sensor_id;sensor_type;location;lat;lon;timestamp;temperature;humidity
65122;HTU21D;51701;45.036;38.924;2022-12-07T00:00:27;-1.04;86.59
65122;HTU21D;51701;45.036;38.924;2022-12-07T00:02:53;-1.04;86.56
65122;HTU21D;51701;45.036;38.924;2022-12-07T00:05:19;-1.03;86.41
65122;HTU21D;51701;45.036;38.924;2022-12-07T00:07:44;-1.04;86.33
65122;HTU21D;51701;45.036;38.924;2022-12-07T00:10:10;-1.05;86.31
65122;HTU21D;51701;45.036;38.924;2022-12-07T00:12:36;-1.09;86.53
65122;HTU21D;51701;45.036;38.924;2022-12-07T00:15:02;-1.08;86.67
65122;HTU21D;51701;45.036;38.924;2022-12-07T00:17:27;-1.08;86.84
65122;HTU21D;51701;45.036;38.924;2022-12-07T00:19:53;-1.10;86.74
65122;HTU21D;51701;45.036;38.924;2022-12-07T00:22:19;-1.11;86.59
65122;HTU21D;51701;45.036;38.924;2022-12-07T00:24:44;-1.11;86.87
65122;HTU21D;51701;45.036;38.924;2022-12-07T00:27:10;-1.10;86.56
65122;HTU21D;51701;45.036;38.924;2022-12-07T00:29:36;-1.10;86.73
65122;HTU21D;51701;45.036;38.924;2022-12-07T00:32:02;-1.09;86.40
65122;HTU21D;51701;45.036;38.924;2022-12-07T00:34:28;-1.11;86.45
65122;HTU21D;51701;45.036;38.924;2022-12-07T00:36:54;-1.14;86.78
65122;HTU21D;51701;45.036;38.924;2022-12-07T00:39:19;-1.13;86.38
65122;HTU21D;51701;45.036;38.924;2022-12-07T00:41:45;-1.16;86.79
65122;HTU21D;51701;45.036;38.924;2022-12-07T00:44:11;-1.17;87.18
65122;HTU21D;51701;45.036;38.924;2022-12-07T00:46:36;-1.16;86.74
65122;HTU21D;51701;45.036;38.924;2022-12-07T00:49:02;-1.17;86.97
65122;HTU21D;51701;45.036;38.924;2022-12-07T00:51:28;-1.19;86.98
65122;HTU21D;51701;45.036;38.924;2022-12-07T00:53:53;-1.20;86.83
65122;HTU21D;51701;45.036;38.924;2022-12-07T00:56:21;-1.20;86.88
65122;HTU21D;51701;45.036;38.924;2022-12-07T00:59:05;-1.20;86.96
65122;HTU21D;51701;45.036;38.924;2022-12-07T01:01:32;-1.20;87.07
65122;HTU21D;51701;45.036;38.924;2022-12-07T01:03:58;-1.20;87.11
65122;HTU21D;51701;45.036;38.924;2022-12-07T01:06:30;-1.21;87.07
65122;HTU21D;51701;45.036;38.924;2022-12-07T01:08:56;-1.21;86.96
65122;HTU21D;51701;45.036;38.924;2022-12-07T01:11:23;-1.18;87.02
65122;HTU21D;51701;45.036;38.924;2022-12-07T01:13:49;-1.18;86.99
65122;HTU21D;51701;45.036;38.924;2022-12-07T01:16:15;-1.19;87.19
65122;HTU21D;51701;45.036;38.924;2022-12-07T01:18:41;-1.23;86.89
65122;HTU21D;51701;45.036;38.924;2022-12-07T01:21:11;-1.23;87.19
65122;HTU21D;51701;45.036;38.924;2022-12-07T01:23:37;-1.21;86.97
65122;HTU21D;51701;45.036;38.924;2022-12-07T01:26:05;-1.24;87.16
65122;HTU21D;51701;45.036;38.924;2022-12-07T01:28:31;-1.26;87.36
65122;HTU21D;51701;45.036;38.924;2022-12-07T01:30:58;-1.28;87.12
65122;HTU21D;51701;45.036;38.924;2022-12-07T01:33:24;-1.29;87.41
65122;HTU21D;51701;45.036;38.924;2022-12-07T01:35:50;-1.33;87.52
65122;HTU21D;51701;45.036;38.924;2022-12-07T01:38:16;-1.34;87.64
65122;HTU21D;51701;45.036;38.924;2022-12-07T01:40:41;-1.32;87.86
65122;HTU21D;51701;45.036;38.924;2022-12-07T01:43:15;-1.36;87.73
65122;HTU21D;51701;45.036;38.924;2022-12-07T01:45:42;-1.34;87.55
65122;HTU21D;51701;45.036;38.924;2022-12-07T01:48:08;-1.38;87.55
65122;HTU21D;51701;45.036;38.924;2022-12-07T01:50:35;-1.38;87.43
65122;HTU21D;51701;45.036;38.924;2022-12-07T01:53:02;-1.42;87.90
65122;HTU21D;51701;45.036;38.924;2022-12-07T01:55:28;-1.44;87.89
65122;HTU21D;51701;45.036;38.924;2022-12-07T01:57:55;-1.46;87.96
65122;HTU21D;51701;45.036;38.924;2022-12-07T02:00:21;-1.49;87.88
65122;HTU21D;51701;45.036;38.924;2022-12-07T02:02:55;-1.48;87.81
65122;HTU21D;51701;45.036;38.924;2022-12-07T02:05:21;-1.50;87.63
65122;HTU21D;51701;45.036;38.924;2022-12-07T02:07:48;-1.50;87.65
65122;HTU21D;51701;45.036;38.924;2022-12-07T02:10:15;-1.55;87.93
65122;HTU21D;51701;45.036;38.924;2022-12-07T02:12:42;-1.58;87.86
65122;HTU21D;51701;45.036;38.924;2022-12-07T02:15:10;-1.58;88.09
65122;HTU21D;51701;45.036;38.924;2022-12-07T02:17:42;-1.59;87.78
65122;HTU21D;51701;45.036;38.924;2022-12-07T02:28:27;-1.63;87.44
65122;HTU21D;51701;45.036;38.924;2022-12-07T02:30:54;-1.67;87.51
65122;HTU21D;51701;45.036;38.924;2022-12-07T02:33:44;-1.68;87.73
65122;HTU21D;51701;45.036;38.924;2022-12-07T02:36:16;-1.68;87.48
65122;HTU21D;51701;45.036;38.924;2022-12-07T02:39:43;-1.71;87.75
65122;HTU21D;51701;45.036;38.924;2022-12-07T02:41:39;-1.72;87.47
65122;HTU21D;51701;45.036;38.924;2022-12-07T02:44:12;-1.74;87.57
65122;HTU21D;51701;45.036;38.924;2022-12-07T02:46:42;-1.78;87.49
65122;HTU21D;51701;45.036;38.924;2022-12-07T02:49:09;-1.75;87.71
65122;HTU21D;51701;45.036;38.924;2022-12-07T02:51:38;-1.80;87.70
65122;HTU21D;51701;45.036;38.924;2022-12-07T02:54:08;-1.82;87.66
65122;HTU21D;51701;45.036;38.924;2022-12-07T02:56:44;-1.85;87.69
65122;HTU21D;51701;45.036;38.924;2022-12-07T02:59:22;-1.85;88.04
65122;HTU21D;51701;45.036;38.924;2022-12-07T03:04:37;-1.87;87.67
65122;HTU21D;51701;45.036;38.924;2022-12-07T03:07:11;-1.86;87.68
65122;HTU21D;51701;45.036;38.924;2022-12-07T03:09:50;-1.90;87.97
65122;HTU21D;51701;45.036;38.924;2022-12-07T03:15:18;-1.92;87.73
65122;HTU21D;51701;45.036;38.924;2022-12-07T03:17:45;-1.92;87.61
65122;HTU21D;51701;45.036;38.924;2022-12-07T03:20:13;-1.90;87.57
65122;HTU21D;51701;45.036;38.924;2022-12-07T03:22:39;-1.90;87.43
65122;HTU21D;51701;45.036;38.924;2022-12-07T03:25:07;-1.90;87.44
65122;HTU21D;51701;45.036;38.924;2022-12-07T03:27:42;-1.93;87.53
65122;HTU21D;51701;45.036;38.924;2022-12-07T03:30:12;-1.99;87.44
65122;HTU21D;51701;45.036;38.924;2022-12-07T03:32:50;-1.98;87.54
65122;HTU21D;51701;45.036;38.924;2022-12-07T03:38:26;-2.01;87.94
65122;HTU21D;51701;45.036;38.924;2022-12-07T03:40:57;-2.00;87.75
65122;HTU21D;51701;45.036;38.924;2022-12-07T03:43:25;-1.99;87.50
65122;HTU21D;51701;45.036;38.924;2022-12-07T03:51:18;-2.01;87.93
65122;HTU21D;51701;45.036;38.924;2022-12-07T03:53:46;-2.03;88.38
65122;HTU21D;51701;45.036;38.924;2022-12-07T03:56:14;-2.05;88.11
65122;HTU21D;51701;45.036;38.924;2022-12-07T03:58:40;-2.04;88.02
65122;HTU21D;51701;45.036;38.924;2022-12-07T04:01:07;-2.04;88.14
65122;HTU21D;51701;45.036;38.924;2022-12-07T04:03:32;-2.05;88.48
65122;HTU21D;51701;45.036;38.924;2022-12-07T04:05:58;-2.05;88.11
65122;HTU21D;51701;45.036;38.924;2022-12-07T04:08:24;-2.04;87.95
65122;HTU21D;51701;45.036;38.924;2022-12-07T04:10:50;-2.03;87.88
65122;HTU21D;51701;45.036;38.924;2022-12-07T04:13:16;-2.04;87.96
65122;HTU21D;51701;45.036;38.924;2022-12-07T04:15:41;-2.06;88.06
65122;HTU21D;51701;45.036;38.924;2022-12-07T04:18:07;-2.06;88.28
65122;HTU21D;51701;45.036;38.924;2022-12-07T20:48:10;0.67;85.84
65122;HTU21D;51701;45.036;38.924;2022-12-07T20:50:36;0.65;86.17
65122;HTU21D;51701;45.036;38.924;2022-12-07T20:53:01;0.61;85.93
65122;HTU21D;51701;45.036;38.924;2022-12-07T20:55:27;0.62;86.59
65122;HTU21D;51701;45.036;38.924;2022-12-07T20:57:53;0.59;86.74
65122;HTU21D;51701;45.036;38.924;2022-12-07T21:00:19;0.60;86.61
65122;HTU21D;51701;45.036;38.924;2022-12-07T21:02:45;0.57;86.76
65122;HTU21D;51701;45.036;38.924;2022-12-07T21:05:10;0.59;86.70
65122;HTU21D;51701;45.036;38.924;2022-12-07T21:07:37;0.60;87.15
65122;HTU21D;51701;45.036;38.924;2022-12-07T21:10:03;0.60;86.91
65122;HTU21D;51701;45.036;38.924;2022-12-07T21:12:29;0.60;86.93
65122;HTU21D;51701;45.036;38.924;2022-12-07T21:14:54;0.61;86.83
65122;HTU21D;51701;45.036;38.924;2022-12-07T21:17:20;0.62;86.59
65122;HTU21D;51701;45.036;38.924;2022-12-07T21:19:46;0.63;86.74
65122;HTU21D;51701;45.036;38.924;2022-12-07T21:22:12;0.63;86.97
65122;HTU21D;51701;45.036;38.924;2022-12-07T21:24:37;0.63;86.74
65122;HTU21D;51701;45.036;38.924;2022-12-07T21:27:04;0.62;86.71
65122;HTU21D;51701;45.036;38.924;2022-12-07T21:29:30;0.62;86.87
65122;HTU21D;51701;45.036;38.924;2022-12-07T21:31:56;0.59;86.86
65122;HTU21D;51701;45.036;38.924;2022-12-07T21:34:22;0.59;86.99
65122;HTU21D;51701;45.036;38.924;2022-12-07T21:36:48;0.58;87.41
65122;HTU21D;51701;45.036;38.924;2022-12-07T21:39:13;0.54;87.30
65122;HTU21D;51701;45.036;38.924;2022-12-07T21:41:39;0.53;87.14
65122;HTU21D;51701;45.036;38.924;2022-12-07T21:44:05;0.51;87.20
65122;HTU21D;51701;45.036;38.924;2022-12-07T21:46:31;0.47;87.38
65122;HTU21D;51701;45.036;38.924;2022-12-07T21:48:58;0.46;87.72
65122;HTU21D;51701;45.036;38.924;2022-12-07T21:51:24;0.42;87.70
65122;HTU21D;51701;45.036;38.924;2022-12-07T21:53:52;0.38;87.94
65122;HTU21D;51701;45.036;38.924;2022-12-07T21:56:19;0.34;88.37
65122;HTU21D;51701;45.036;38.924;2022-12-07T21:58:46;0.30;88.29
65122;HTU21D;51701;45.036;38.924;2022-12-07T22:01:31;0.25;88.34
65122;HTU21D;51701;45.036;38.924;2022-12-07T22:03:59;0.24;88.70
65122;HTU21D;51701;45.036;38.924;2022-12-07T22:06:25;0.22;89.01
65122;HTU21D;51701;45.036;38.924;2022-12-07T22:08:52;0.17;88.50
65122;HTU21D;51701;45.036;38.924;2022-12-07T22:11:18;0.14;88.91
65122;HTU21D;51701;45.036;38.924;2022-12-07T22:13:44;0.08;88.36
65122;HTU21D;51701;45.036;38.924;2022-12-07T22:16:29;-0.00;88.39
65122;HTU21D;51701;45.036;38.924;2022-12-07T22:18:55;-0.05;88.39
65122;HTU21D;51701;45.036;38.924;2022-12-07T22:21:22;-0.08;88.49
65122;HTU21D;51701;45.036;38.924;2022-12-07T22:23:47;-0.10;88.49
65122;HTU21D;51701;45.036;38.924;2022-12-07T22:26:14;-0.12;88.35
65122;HTU21D;51701;45.036;38.924;2022-12-07T22:28:40;-0.13;88.39
65122;HTU21D;51701;45.036;38.924;2022-12-07T22:31:07;-0.16;88.26
65122;HTU21D;51701;45.036;38.924;2022-12-07T22:33:33;-0.20;88.15
65122;HTU21D;51701;45.036;38.924;2022-12-07T22:35:59;-0.22;88.28
65122;HTU21D;51701;45.036;38.924;2022-12-07T22:38:25;-0.26;88.14
65122;HTU21D;51701;45.036;38.924;2022-12-07T22:40:52;-0.29;88.22
65122;HTU21D;51701;45.036;38.924;2022-12-07T22:43:17;-0.29;88.37
65122;HTU21D;51701;45.036;38.924;2022-12-07T22:45:43;-0.28;88.46
65122;HTU21D;51701;45.036;38.924;2022-12-07T22:48:09;-0.21;89.31
65122;HTU21D;51701;45.036;38.924;2022-12-07T22:50:34;-0.19;89.21
65122;HTU21D;51701;45.036;38.924;2022-12-07T22:53:01;-0.15;89.76
65122;HTU21D;51701;45.036;38.924;2022-12-07T22:55:27;-0.13;89.27
65122;HTU21D;51701;45.036;38.924;2022-12-07T22:57:52;-0.14;89.06
65122;HTU21D;51701;45.036;38.924;2022-12-07T23:00:18;-0.17;88.64
65122;HTU21D;51701;45.036;38.924;2022-12-07T23:02:44;-0.19;89.20
65122;HTU21D;51701;45.036;38.924;2022-12-07T23:05:09;-0.25;88.59
65122;HTU21D;51701;45.036;38.924;2022-12-07T23:07:35;-0.28;88.60
65122;HTU21D;51701;45.036;38.924;2022-12-07T23:10:01;-0.32;88.71
65122;HTU21D;51701;45.036;38.924;2022-12-07T23:12:27;-0.34;88.67
65122;HTU21D;51701;45.036;38.924;2022-12-07T23:15:11;-0.37;88.41
65122;HTU21D;51701;45.036;38.924;2022-12-07T23:17:37;-0.36;88.86
65122;HTU21D;51701;45.036;38.924;2022-12-07T23:20:03;-0.37;88.54
65122;HTU21D;51701;45.036;38.924;2022-12-07T23:22:29;-0.39;88.44
65122;HTU21D;51701;45.036;38.924;2022-12-07T23:24:55;-0.39;88.41
65122;HTU21D;51701;45.036;38.924;2022-12-07T23:27:20;-0.39;88.68
65122;HTU21D;51701;45.036;38.924;2022-12-07T23:29:46;-0.35;88.58
65122;HTU21D;51701;45.036;38.924;2022-12-07T23:32:12;-0.29;90.00
65122;HTU21D;51701;45.036;38.924;2022-12-07T23:34:38;-0.26;89.06
65122;HTU21D;51701;45.036;38.924;2022-12-07T23:37:03;-0.21;89.34
65122;HTU21D;51701;45.036;38.924;2022-12-07T23:39:29;-0.14;89.07
65122;HTU21D;51701;45.036;38.924;2022-12-07T23:41:55;-0.11;89.02
65122;HTU21D;51701;45.036;38.924;2022-12-07T23:44:20;-0.06;89.35
65122;HTU21D;51701;45.036;38.924;2022-12-07T23:46:46;-0.03;88.83
65122;HTU21D;51701;45.036;38.924;2022-12-07T23:49:12;-0.01;88.67
65122;HTU21D;51701;45.036;38.924;2022-12-07T23:51:38;0.04;89.01
65122;HTU21D;51701;45.036;38.924;2022-12-07T23:54:04;0.07;88.76
65122;HTU21D;51701;45.036;38.924;2022-12-07T23:56:31;0.10;88.79
65122;HTU21D;51701;45.036;38.924;2022-12-07T23:58:57;0.14;88.57
